Terminal Aerodrome Forecast
Issued by NWS Shreveport, LA

Home | Current Version | Previous Version | Text Only | Print | Product List | Glossary On
Versions: 1 2 3 4 5 6 7 8 9 10 11
175
FTUS44 KSHV 252322
TAFGGG
TAF
KGGG 252322Z 2600/2624 17015G25KT P6SM SCT040
      TEMPO 2602/2606 BKN025
     FM260600 17014G22KT P6SM OVC020
      TEMPO 2606/2610 OVC010
     FM261000 17013G20KT P6SM OVC010
      TEMPO 2610/2614 OVC008
     FM261400 18015G25KT P6SM OVC015
     FM261800 20017G27KT P6SM VCTS OVC025CB
      TEMPO 2619/2623 VRB20G40KT 1SM +TSRA BR OVC015CB
     FM262300 30016G26KT P6SM BKN030=

USA.gov is the U.S. government's official web portal to all federal, state and local government web resources and services.